Time;durP1;ratioP1;P1;durP2;ratioP2;P2;SDS_P1;SDS_P2;PMS_P1;PMS_P2;Temp;Humidity;BMP_temperature;BMP_pressure;BME280_temperature;BME280_humidity;BME280_pressure;Samples;Min_cycle;Max_cycle;Signal;HPM_P1;HPM_P2
2022/05/25 00:01:21;;;;;;;5.80;3.17;;;;;;;19.02;67.42;101052.28;2099620;28;20337;-71
2022/05/25 00:02:44;;;;;;;5.57;2.88;;;;;;;18.97;67.60;101050.59;2100066;28;20133;-71
2022/05/25 00:04:07;;;;;;;6.47;2.90;;;;;;;18.94;67.71;101050.63;2098489;28;20293;-71
2022/05/25 00:05:31;;;;;;;8.90;3.22;;;;;;;18.93;67.88;101046.19;2091320;28;20428;-71
2022/05/25 00:06:53;;;;;;;7.97;3.15;;;;;;;18.91;67.98;101046.19;2096942;28;20047;-72
2022/05/25 00:08:16;;;;;;;5.82;2.90;;;;;;;18.89;67.92;101042.69;2094252;28;20110;-71
2022/05/25 00:09:40;;;;;;;4.60;2.67;;;;;;;18.87;68.04;101036.44;2088389;28;20401;-71
2022/05/25 00:11:01;;;;;;;6.35;3.67;;;;;;;18.86;67.99;101039.13;2096279;28;20048;-71
2022/05/25 00:12:24;;;;;;;6.15;3.20;;;;;;;18.89;68.04;101041.78;2092041;28;20040;-71
2022/05/25 00:13:47;;;;;;;7.05;2.90;;;;;;;18.89;68.07;101031.97;2079546;28;20041;-71
2022/05/25 00:15:11;;;;;;;7.18;3.05;;;;;;;18.89;67.95;101034.66;2094127;28;20047;-71
2022/05/25 00:16:34;;;;;;;6.38;2.95;;;;;;;18.90;67.88;101036.41;2099764;28;20055;-71
2022/05/25 00:17:56;;;;;;;6.45;2.97;;;;;;;18.93;68.06;101033.69;2097515;28;20182;-71
2022/05/25 00:20:58;;;;;;;8.70;2.92;;;;;;;18.95;67.63;101028.31;2083351;28;20052;-71
2022/05/25 00:22:20;;;;;;;7.20;3.40;;;;;;;18.94;67.54;101026.53;2104929;28;20089;-71
2022/05/25 00:23:42;;;;;;;5.93;3.00;;;;;;;18.94;67.53;101023.88;2099027;28;20064;-71
2022/05/25 00:25:09;;;;;;;6.38;3.25;;;;;;;18.96;67.51;101025.63;2102216;28;20052;-72
2022/05/25 00:26:34;;;;;;;6.70;3.30;;;;;;;18.96;67.62;101019.38;2101422;28;20127;-71
2022/05/25 00:27:56;;;;;;;7.60;3.05;;;;;;;18.95;67.51;101023.84;2109796;28;20055;-71
2022/05/25 00:29:18;;;;;;;5.80;3.08;;;;;;;18.95;67.74;101021.19;2089699;28;20053;-72
2022/05/25 00:30:42;;;;;;;8.00;3.45;;;;;;;18.91;67.55;101022.09;2089573;28;20068;-71
2022/05/25 00:32:04;;;;;;;6.95;2.95;;;;;;;18.88;67.73;101026.63;2090096;28;20048;-71
2022/05/25 00:33:27;;;;;;;7.75;3.90;;;;;;;18.85;67.88;101021.31;2095299;28;20521;-72
2022/05/25 00:34:49;;;;;;;7.97;3.22;;;;;;;18.84;67.88;101022.25;2098848;28;20500;-71
2022/05/25 00:36:11;;;;;;;6.95;3.47;;;;;;;18.83;68.00;101021.34;2084937;28;20041;-71
2022/05/25 00:37:34;;;;;;;9.90;3.78;;;;;;;18.83;67.94;101015.13;2098580;28;20040;-72
2022/05/25 00:38:56;;;;;;;7.55;4.00;;;;;;;18.82;68.10;101016.91;2096442;28;20114;-71
2022/05/25 00:40:23;;;;;;;8.00;4.07;;;;;;;18.81;68.02;101012.47;2091505;28;20064;-71
2022/05/25 00:41:46;;;;;;;7.70;3.55;;;;;;;18.77;68.22;101015.22;2100299;28;20071;-71
2022/05/25 00:43:10;;;;;;;9.07;3.53;;;;;;;18.78;68.45;101015.16;2100571;28;20519;-71
2022/05/25 00:44:33;;;;;;;6.00;3.55;;;;;;;18.79;68.36;101018.72;2089158;28;20044;-71
2022/05/25 00:46:01;;;;;;;6.38;3.15;;;;;;;18.78;68.34;101012.50;2090972;28;20139;-71
2022/05/25 00:47:26;;;;;;;7.28;2.97;;;;;;;18.75;68.14;101007.19;2098766;28;20603;-71
2022/05/25 00:48:53;;;;;;;8.65;2.50;;;;;;;18.71;68.31;101017.03;2079931;28;20075;-71
2022/05/25 00:50:20;;;;;;;8.85;3.03;;;;;;;18.66;68.40;101013.56;2101865;28;20406;-71
2022/05/25 00:51:48;;;;;;;5.85;3.33;;;;;;;18.61;68.41;101014.53;2096335;28;20374;-71
2022/05/25 00:53:11;;;;;;;7.95;2.85;;;;;;;18.55;68.82;101019.91;2089959;28;20049;-71
2022/05/25 00:54:35;;;;;;;5.13;2.38;;;;;;;18.54;68.81;101012.78;2077463;28;20497;-71
2022/05/25 00:55:58;;;;;;;7.85;3.38;;;;;;;18.57;68.89;101019.03;2083193;28;20052;-71
2022/05/25 00:57:24;;;;;;;8.75;3.40;;;;;;;18.61;68.64;101020.75;2088938;28;20079;-71
2022/05/25 00:58:49;;;;;;;6.18;2.88;;;;;;;18.65;68.58;101011.78;2102969;28;20044;-71
2022/05/25 01:00:15;;;;;;;6.35;3.17;;;;;;;18.65;68.32;101016.25;2103080;28;20679;-70
2022/05/25 01:01:39;;;;;;;8.50;3.03;;;;;;;18.66;68.15;101018.91;2101327;28;20584;-71
2022/05/25 01:03:04;;;;;;;7.90;2.95;;;;;;;18.68;68.04;101019.78;2094626;28;20566;-71
2022/05/25 01:04:28;;;;;;;9.02;3.40;;;;;;;18.70;68.34;101019.75;2093358;28;20059;-71
2022/05/25 01:06:02;;;;;;;11.55;3.58;;;;;;;18.72;68.18;101017.94;2087019;28;20475;-71
2022/05/25 01:07:37;;;;;;;6.15;3.17;;;;;;;18.73;67.93;101014.34;2100385;28;20560;-71
2022/05/25 01:09:09;;;;;;;6.53;2.92;;;;;;;18.72;67.97;101012.56;2102773;28;20072;-71
2022/05/25 01:10:46;;;;;;;10.02;3.65;;;;;;;18.72;68.33;101009.91;2104439;28;20040;-71
2022/05/25 01:12:28;;;;;;;7.32;3.17;;;;;;;18.72;68.19;101009.91;2100238;28;20124;-71
2022/05/25 01:13:58;;;;;;;6.40;3.10;;;;;;;18.70;68.26;101009.06;2095087;28;20110;-70
2022/05/25 01:15:29;;;;;;;6.55;3.03;;;;;;;18.68;68.46;101001.06;2106312;28;20427;-70
2022/05/25 01:17:03;;;;;;;6.28;3.30;;;;;;;18.69;68.40;101004.63;2096372;28;20052;-71
2022/05/25 01:18:34;;;;;;;5.78;3.05;;;;;;;18.63;68.54;101005.59;2092885;28;20044;-71
2022/05/25 01:20:10;;;;;;;6.15;3.42;;;;;;;18.53;68.67;101006.56;2100428;28;20507;-71
2022/05/25 01:21:40;;;;;;;6.35;3.30;;;;;;;18.45;69.06;101004.88;2095053;28;20051;-71
2022/05/25 01:23:31;;;;;;;6.97;3.15;;;;;;;18.37;69.26;101010.34;2108390;28;20056;-71
2022/05/25 01:25:08;;;;;;;5.38;2.95;;;;;;;18.37;69.19;101010.34;2104480;28;20086;-70
2022/05/25 01:26:40;;;;;;;7.30;2.75;;;;;;;18.38;69.27;101011.25;2096028;28;20136;-71
2022/05/25 01:28:15;;;;;;;5.18;3.08;;;;;;;18.38;69.09;101005.91;2096730;28;21304;-71
2022/05/25 01:29:56;;;;;;;7.30;2.90;;;;;;;18.40;69.02;101007.63;2101977;28;20052;-71
2022/05/25 01:31:24;;;;;;;8.85;3.78;;;;;;;18.43;69.02;101014.72;2109563;28;20043;-71
2022/05/25 01:33:12;;;;;;;6.25;3.50;;;;;;;18.47;68.82;101005.75;2094480;28;20044;-71
2022/05/25 01:34:41;;;;;;;7.90;3.30;;;;;;;18.52;68.70;101006.56;2104700;28;20059;-71
2022/05/25 01:36:11;;;;;;;5.18;2.55;;;;;;;18.55;68.48;101007.47;2086603;28;20056;-71
2022/05/25 01:37:41;;;;;;;4.65;2.75;;;;;;;18.57;68.22;101011.03;2092635;28;20036;-72
2022/05/25 01:39:08;;;;;;;5.95;3.03;;;;;;;18.56;68.13;101014.59;2096544;28;20050;-71
2022/05/25 01:40:38;;;;;;;7.68;2.67;;;;;;;18.54;68.15;101012.78;2105843;28;20138;-71
2022/05/25 01:42:03;;;;;;;5.78;2.78;;;;;;;18.53;67.96;101019.03;2099584;28;20070;-71
2022/05/25 01:43:34;;;;;;;6.28;3.28;;;;;;;18.51;67.88;101016.38;2096120;28;20063;-72
2022/05/25 01:45:01;;;;;;;10.85;3.05;;;;;;;18.47;67.82;101013.78;2102323;28;20098;-71
2022/05/25 01:46:27;;;;;;;6.07;3.20;;;;;;;18.47;68.00;101016.44;2093319;28;20050;-71
2022/05/25 01:47:52;;;;;;;4.40;2.60;;;;;;;18.49;68.03;101025.34;2109958;28;20089;-71
2022/05/25 01:49:18;;;;;;;7.45;2.78;;;;;;;18.49;67.71;101011.97;2102589;28;20052;-71
2022/05/25 01:50:46;;;;;;;5.95;2.80;;;;;;;18.54;67.69;101018.16;2095218;28;20145;-71
2022/05/25 01:52:11;;;;;;;8.48;3.38;;;;;;;18.54;67.54;101015.47;2099392;28;20032;-71
2022/05/25 01:53:39;;;;;;;6.07;2.72;;;;;;;18.53;67.45;101014.59;2110328;27;20055;-71
2022/05/25 01:55:06;;;;;;;4.75;2.75;;;;;;;18.54;67.43;101018.16;2097409;28;20044;-71
2022/05/25 01:56:34;;;;;;;8.23;3.15;;;;;;;18.54;67.29;101018.16;2102123;28;20048;-71
2022/05/25 01:58:09;;;;;;;4.57;2.75;;;;;;;18.55;67.21;101018.16;2107889;28;20051;-72
2022/05/25 01:59:32;;;;;;;4.25;2.75;;;;;;;18.55;67.27;101014.56;2101266;28;20484;-71
2022/05/25 02:01:00;;;;;;;5.65;3.10;;;;;;;18.56;67.16;101019.94;2100560;28;20571;-72
2022/05/25 02:04:19;;;;;;;6.15;2.88;;;;;;;18.55;67.15;101017.25;2103209;28;20040;-71
2022/05/25 02:05:54;;;;;;;5.93;2.80;;;;;;;18.56;66.92;101021.72;2102220;28;20144;-71
2022/05/25 02:07:25;;;;;;;7.97;3.03;;;;;;;18.55;66.72;101025.28;2109687;28;20126;-72
2022/05/25 02:09:07;;;;;;;5.85;2.45;;;;;;;18.53;66.67;101021.72;2102540;28;20052;-71
2022/05/25 02:10:46;;;;;;;6.47;2.67;;;;;;;18.52;66.45;101026.19;2117115;27;20142;-72
2022/05/25 02:12:22;;;;;;;6.22;3.25;;;;;;;18.54;66.31;101018.16;2110662;28;20048;-72
2022/05/25 02:13:57;;;;;;;6.40;3.60;;;;;;;18.57;66.42;101026.19;2099719;28;20214;-71
2022/05/25 02:15:33;;;;;;;5.70;2.20;;;;;;;18.58;66.13;101019.91;2111524;28;20040;-71
2022/05/25 02:17:09;;;;;;;4.70;2.60;;;;;;;18.60;65.94;101023.44;2107622;27;20048;-72
2022/05/25 02:18:36;;;;;;;7.20;3.15;;;;;;;18.62;65.93;101021.66;2117980;27;20095;-72
2022/05/25 02:20:05;;;;;;;6.40;2.72;;;;;;;18.63;65.65;101024.31;2113059;28;20088;-71
2022/05/25 02:21:35;;;;;;;8.35;3.50;;;;;;;18.62;65.39;101022.53;2099056;28;20114;-72
2022/05/25 02:23:03;;;;;;;3.40;2.33;;;;;;;18.62;65.51;101030.56;2104012;28;20044;-72
2022/05/25 02:24:30;;;;;;;4.03;2.30;;;;;;;18.60;65.23;101024.34;2104850;28;20059;-72
2022/05/25 02:26:00;;;;;;;3.58;2.42;;;;;;;18.58;65.06;101033.25;2108960;28;20122;-71
2022/05/25 02:27:27;;;;;;;5.13;3.00;;;;;;;18.56;64.86;101033.31;2103681;28;20147;-71
2022/05/25 02:29:05;;;;;;;5.68;2.70;;;;;;;18.52;64.98;101036.88;2107364;28;20062;-71
2022/05/25 02:30:33;;;;;;;7.88;2.40;;;;;;;18.48;65.10;101043.19;2097563;28;20133;-72
2022/05/25 02:32:04;;;;;;;3.75;2.40;;;;;;;18.46;64.89;101046.75;2108312;28;20427;-72
2022/05/25 02:33:31;;;;;;;8.02;2.45;;;;;;;18.43;65.00;101050.38;2103627;28;20082;-71
2022/05/25 02:34:55;;;;;;;4.60;2.33;;;;;;;18.44;64.74;101059.28;2110802;28;20111;-72
2022/05/25 02:36:18;;;;;;;6.18;2.17;;;;;;;18.43;64.85;101054.84;2111324;28;20061;-72
2022/05/25 02:37:43;;;;;;;9.25;3.05;;;;;;;18.42;64.54;101061.06;2102706;28;20036;-72
2022/05/25 02:39:07;;;;;;;5.28;2.20;;;;;;;18.39;64.51;101061.97;2105875;27;20377;-72
2022/05/25 02:40:30;;;;;;;4.13;2.17;;;;;;;18.33;64.34;101062.94;2104067;28;20108;-72
2022/05/25 02:41:54;;;;;;;4.85;2.45;;;;;;;18.32;64.68;101071.88;2099958;28;20494;-72
2022/05/25 02:43:17;;;;;;;4.72;2.10;;;;;;;18.35;64.40;101070.97;2092798;28;20036;-72
2022/05/25 02:44:39;;;;;;;3.92;2.50;;;;;;;18.38;64.49;101076.25;2099070;28;20138;-71
2022/05/25 02:46:01;;;;;;;6.50;2.92;;;;;;;18.38;64.20;101084.28;2100199;28;20723;-72
2022/05/25 02:47:26;;;;;;;5.63;2.60;;;;;;;18.39;64.03;101086.03;2092354;28;20075;-72
2022/05/25 02:48:48;;;;;;;6.05;2.20;;;;;;;18.37;64.10;101085.19;2100850;28;20048;-71
2022/05/25 02:50:11;;;;;;;5.38;2.50;;;;;;;18.36;63.90;101083.44;2108931;28;20043;-72
2022/05/25 02:51:34;;;;;;;4.90;2.35;;;;;;;18.37;63.81;101087.88;2109638;27;20169;-72
2022/05/25 02:52:57;;;;;;;5.82;2.67;;;;;;;18.38;63.94;101086.09;2104914;28;20135;-71
2022/05/25 02:54:22;;;;;;;4.07;2.97;;;;;;;18.38;63.83;101092.28;2108602;28;20052;-72
2022/05/25 02:55:44;;;;;;;7.00;2.85;;;;;;;18.39;63.97;101093.19;2107887;28;20737;-71
2022/05/25 02:57:08;;;;;;;7.00;2.50;;;;;;;18.40;63.90;101092.28;2110341;28;20131;-71
2022/05/25 02:58:31;;;;;;;7.18;2.95;;;;;;;18.39;63.74;101093.19;2113103;27;20632;-73
2022/05/25 02:59:54;;;;;;;5.20;2.58;;;;;;;18.37;63.95;101084.31;2104088;28;20534;-72
2022/05/25 03:01:16;;;;;;;4.80;2.47;;;;;;;18.36;64.00;101088.78;2101580;28;20051;-71
2022/05/25 03:02:41;;;;;;;3.92;2.38;;;;;;;18.38;64.06;101096.78;2103997;28;20040;-71
2022/05/25 03:04:04;;;;;;;5.47;2.33;;;;;;;18.38;64.13;101096.78;2108300;28;20542;-72
2022/05/25 03:05:26;;;;;;;5.35;2.20;;;;;;;18.38;63.91;101096.78;2109393;28;20040;-71
2022/05/25 03:06:49;;;;;;;5.53;2.30;;;;;;;18.38;64.00;101097.63;2112543;28;20052;-71
2022/05/25 03:08:11;;;;;;;5.75;2.72;;;;;;;18.39;64.11;101098.53;2115381;27;20136;-72
2022/05/25 03:09:35;;;;;;;4.78;2.28;;;;;;;18.39;63.89;101101.19;2112342;28;20044;-72
2022/05/25 03:10:57;;;;;;;6.85;2.88;;;;;;;18.39;63.91;101098.53;2113670;27;20523;-71
2022/05/25 03:12:20;;;;;;;6.57;3.05;;;;;;;18.41;63.86;101092.28;2112418;27;20491;-72
2022/05/25 03:13:45;;;;;;;7.93;3.13;;;;;;;18.43;63.91;101097.63;2108543;28;20074;-71
2022/05/25 03:15:09;;;;;;;7.35;3.38;;;;;;;18.46;63.58;101089.53;2111255;28;20170;-72
2022/05/25 03:16:30;;;;;;;5.18;2.80;;;;;;;18.48;63.64;101093.97;2109458;28;20056;-72
2022/05/25 03:17:54;;;;;;;6.68;3.40;;;;;;;18.50;63.55;101096.63;2104057;28;20051;-72
2022/05/25 03:19:17;;;;;;;6.72;2.78;;;;;;;18.47;63.57;101100.22;2104191;28;20048;-71
2022/05/25 03:20:40;;;;;;;3.58;2.22;;;;;;;18.45;63.38;101103.81;2105238;28;20040;-71
2022/05/25 03:22:03;;;;;;;6.03;2.50;;;;;;;18.44;63.75;101113.63;2099734;28;20060;-71
2022/05/25 03:23:26;;;;;;;6.07;2.50;;;;;;;18.41;63.60;101119.00;2101602;28;20139;-72
2022/05/25 03:24:47;;;;;;;4.75;2.40;;;;;;;18.40;63.87;101117.22;2098368;28;20130;-71
2022/05/25 03:26:10;;;;;;;5.40;2.40;;;;;;;18.39;63.73;101120.81;2102127;28;20059;-71
2022/05/25 03:27:31;;;;;;;7.47;2.08;;;;;;;18.41;63.85;101128.81;2106752;28;20138;-72
2022/05/25 03:28:54;;;;;;;5.85;2.78;;;;;;;18.40;64.16;101127.91;2096076;28;20486;-71
2022/05/25 03:30:20;;;;;;;6.68;2.35;;;;;;;18.47;63.67;101128.75;2108575;28;20075;-71
2022/05/25 03:31:42;;;;;;;4.93;2.58;;;;;;;18.53;63.86;101131.34;2108442;27;20419;-71
2022/05/25 03:33:06;;;;;;;8.32;2.88;;;;;;;18.60;63.41;101130.41;2118639;27;20089;-71
2022/05/25 03:34:29;;;;;;;5.45;2.35;;;;;;;18.64;63.32;101129.50;2105199;28;20048;-72
2022/05/25 03:35:52;;;;;;;5.45;2.47;;;;;;;18.67;62.88;101121.41;2110062;27;20139;-71
2022/05/25 03:37:15;;;;;;;5.78;2.60;;;;;;;18.74;62.75;101128.47;2097023;28;20048;-72
2022/05/25 03:38:37;;;;;;;3.53;2.28;;;;;;;18.79;62.81;101126.63;2098797;28;20048;-72
2022/05/25 03:39:59;;;;;;;4.30;2.50;;;;;;;18.85;62.73;101126.53;2098738;28;20077;-71
2022/05/25 03:41:23;;;;;;;4.45;2.15;;;;;;;18.91;62.77;101126.47;2083266;28;20041;-71
2022/05/25 03:42:45;;;;;;;5.13;2.30;;;;;;;19.00;62.67;101125.47;2099594;28;20059;-72
2022/05/25 03:44:10;;;;;;;6.18;2.08;;;;;;;19.05;62.40;101129.84;2108200;28;20042;-71
2022/05/25 03:45:34;;;;;;;5.20;2.40;;;;;;;19.13;62.31;101126.19;2101547;28;20048;-71
2022/05/25 03:46:56;;;;;;;7.22;3.17;;;;;;;19.21;62.25;101129.66;2106201;27;20666;-71
2022/05/25 03:48:20;;;;;;;5.75;2.72;;;;;;;19.34;62.39;101124.09;2108719;28;20067;-71
2022/05/25 03:49:44;;;;;;;6.40;2.70;;;;;;;19.44;62.09;101125.72;2095628;28;20131;-72
2022/05/25 03:51:06;;;;;;;6.30;2.55;;;;;;;19.54;61.88;101125.63;2107546;28;20071;-71
2022/05/25 03:52:29;;;;;;;5.10;2.47;;;;;;;19.63;61.65;101123.66;2100638;28;20068;-70
2022/05/25 03:53:52;;;;;;;4.85;2.70;;;;;;;19.73;61.74;101119.94;2094107;28;20052;-71
2022/05/25 03:55:15;;;;;;;5.00;2.42;;;;;;;19.86;61.91;101121.53;2107864;28;20439;-71
2022/05/25 03:56:38;;;;;;;4.57;2.40;;;;;;;19.99;61.70;101118.63;2103272;28;20503;-71
2022/05/25 03:57:59;;;;;;;4.55;2.40;;;;;;;20.11;61.59;101115.72;2101309;28;20051;-70
2022/05/25 03:59:21;;;;;;;5.65;2.53;;;;;;;20.22;61.57;101119.97;2110067;28;20617;-71
2022/05/25 04:00:44;;;;;;;5.13;2.50;;;;;;;20.35;61.33;101112.63;2100721;28;20067;-71
2022/05/25 04:02:07;;;;;;;7.75;2.40;;;;;;;20.48;60.89;101113.28;2092632;28;20053;-70
2022/05/25 04:03:31;;;;;;;7.30;2.65;;;;;;;20.62;60.99;101109.41;2102587;27;20166;-71
2022/05/25 04:05:07;;;;;;;10.18;3.75;;;;;;;20.72;60.90;101115.47;2094305;28;20451;-71
2022/05/25 04:06:30;;;;;;;5.65;2.72;;;;;;;20.79;60.53;101110.88;2103468;28;20051;-71
2022/05/25 04:07:51;;;;;;;5.43;3.17;;;;;;;20.85;60.59;101106.25;2105592;28;20412;-71
2022/05/25 04:09:14;;;;;;;8.95;3.15;;;;;;;21.00;60.17;101107.75;2108765;28;20070;-71
2022/05/25 04:10:37;;;;;;;6.63;2.95;;;;;;;21.16;60.01;101105.63;2100680;28;20051;-71
2022/05/25 04:12:00;;;;;;;4.78;2.60;;;;;;;21.31;59.88;101106.16;2100758;28;20097;-70
2022/05/25 04:13:22;;;;;;;3.42;2.50;;;;;;;21.46;59.58;101100.41;2110550;27;21816;-71
2022/05/25 04:14:45;;;;;;;3.22;2.22;;;;;;;21.64;58.71;101109.84;2105079;28;20039;-71
2022/05/25 04:16:07;;;;;;;5.07;2.25;;;;;;;21.78;58.18;101104.16;2100741;28;20105;-71
2022/05/25 04:17:28;;;;;;;4.50;2.20;;;;;;;21.96;58.23;101101.03;2097900;28;20328;-71
2022/05/25 04:18:53;;;;;;;6.63;3.10;;;;;;;22.13;57.77;101109.50;2094058;28;20511;-71
2022/05/25 04:20:18;;;;;;;4.78;2.80;;;;;;;22.32;57.43;101104.50;2099641;28;20052;-71
2022/05/25 04:21:39;;;;;;;6.88;2.72;;;;;;;22.48;57.30;101102.31;2103018;28;20050;-71
2022/05/25 04:23:03;;;;;;;4.75;2.30;;;;;;;22.57;56.70;101102.06;2090482;28;20051;-71
2022/05/25 04:24:26;;;;;;;5.45;2.20;;;;;;;22.58;56.60;101099.28;2105845;28;20387;-71
2022/05/25 04:25:50;;;;;;;3.78;1.77;;;;;;;22.63;56.62;101102.75;2096196;28;20127;-72
2022/05/25 04:27:12;;;;;;;5.93;2.08;;;;;;;22.76;56.35;101095.25;2099502;28;20036;-71
2022/05/25 04:28:36;;;;;;;8.02;1.95;;;;;;;22.96;55.87;101100.94;2099414;28;20104;-71
2022/05/25 04:29:58;;;;;;;5.43;1.88;;;;;;;23.16;55.59;101103.00;2104086;28;21577;-71
2022/05/25 04:31:20;;;;;;;3.90;1.60;;;;;;;23.34;55.04;101099.75;2103921;28;20040;-71
2022/05/25 04:32:44;;;;;;;4.35;1.90;;;;;;;23.54;54.50;101111.72;2110915;28;20514;-71
2022/05/25 04:34:11;;;;;;;5.13;1.90;;;;;;;23.73;53.93;101121.88;2108593;28;20071;-71
2022/05/25 04:35:34;;;;;;;7.05;2.03;;;;;;;23.91;53.76;101117.66;2116096;27;20067;-71
2022/05/25 04:37:48;;;;;;;6.72;1.67;;;;;;;24.10;53.21;101126.88;2102496;28;20070;-71
2022/05/25 04:38:39;;;;;;;;;;;;;;;24.22;52.03;101120.22;2105111;28;20048;-71
2022/05/25 04:40:00;;;;;;;6.20;1.80;;;;;;;24.33;52.21;101115.34;2110563;28;19919;-71
2022/05/25 04:41:23;;;;;;;4.05;1.60;;;;;;;24.47;51.82;101122.94;2109142;28;20138;-71
2022/05/25 04:42:45;;;;;;;3.05;1.63;;;;;;;24.62;51.41;101117.84;2094534;28;20143;-71
2022/05/25 04:44:08;;;;;;;2.88;1.60;;;;;;;24.82;51.14;101124.34;2104917;28;20050;-71
2022/05/25 04:45:31;;;;;;;5.88;2.00;;;;;;;25.05;50.54;101121.69;2091849;28;20739;-71
2022/05/25 04:46:54;;;;;;;4.07;1.90;;;;;;;25.32;49.64;101126.03;2108911;27;20464;-71
2022/05/25 04:48:20;;;;;;;3.75;2.20;;;;;;;25.58;48.40;101126.84;2104845;28;20071;-70
2022/05/25 04:49:44;;;;;;;4.32;2.10;;;;;;;25.83;47.76;101133.00;2110774;28;20055;-71
2022/05/25 04:51:07;;;;;;;7.15;2.17;;;;;;;26.04;47.32;101134.81;2109144;28;20100;-71
2022/05/25 04:52:30;;;;;;;6.38;2.28;;;;;;;26.23;46.72;101131.31;2093740;28;20056;-71
2022/05/25 04:53:53;;;;;;;4.07;1.65;;;;;;;26.41;46.17;101141.38;2093933;28;20393;-71
2022/05/25 04:58:34;;;;;;;6.72;1.88;;;;;;;27.11;44.92;101133.66;2113406;27;20071;-71
2022/05/25 04:59:59;;;;;;;4.88;2.55;;;;;;;27.36;44.72;101136.97;2105460;28;20044;-71
2022/05/25 05:01:22;;;;;;;4.97;2.45;;;;;;;27.59;44.08;101140.44;2102096;28;20056;-71
2022/05/25 05:02:44;;;;;;;5.22;1.83;;;;;;;27.76;43.82;101148.63;2106922;28;20027;-71
2022/05/25 05:04:07;;;;;;;6.43;2.30;;;;;;;27.93;43.28;101145.06;2100552;28;20052;-71
2022/05/25 05:05:31;;;;;;;2.78;1.60;;;;;;;28.13;43.10;101153.09;2099476;28;20052;-71
2022/05/25 05:06:54;;;;;;;3.33;1.67;;;;;;;28.30;42.75;101160.38;2108185;28;20137;-71
2022/05/25 05:08:17;;;;;;;7.15;1.80;;;;;;;28.54;42.58;101153.69;2092465;28;20390;-71
2022/05/25 05:09:41;;;;;;;4.38;1.70;;;;;;;28.78;41.57;101162.41;2097227;28;20055;-71
2022/05/25 05:11:06;;;;;;;5.53;1.52;;;;;;;29.02;40.93;101166.50;2097703;28;20043;-71
2022/05/25 05:12:29;;;;;;;5.90;1.90;;;;;;;29.24;40.55;101161.66;2102297;28;20078;-71
2022/05/25 05:13:51;;;;;;;5.07;1.80;;;;;;;29.48;40.16;101172.16;2107436;28;20070;-72
2022/05/25 05:15:13;;;;;;;5.18;1.90;;;;;;;29.67;39.80;101172.84;2108342;28;20064;-72
2022/05/25 05:16:36;;;;;;;3.33;1.38;;;;;;;29.83;39.37;101181.91;2104482;28;20081;-72
2022/05/25 05:18:12;;;;;;;8.90;2.15;;;;;;;30.03;39.04;101187.13;2094299;28;20068;-72
2022/05/25 05:20:01;;;;;;;4.25;1.70;;;;;;;30.27;38.84;101190.22;2105940;28;20059;-71
2022/05/25 05:21:25;;;;;;;5.70;1.65;;;;;;;30.39;38.33;101196.81;2095174;28;20202;-71
2022/05/25 05:22:48;;;;;;;7.47;1.88;;;;;;;30.47;37.92;101195.34;2109098;28;20388;-71
2022/05/25 05:24:11;;;;;;;3.50;1.38;;;;;;;30.65;37.07;101193.41;2111327;28;20070;-71
2022/05/25 05:25:34;;;;;;;4.55;1.40;;;;;;;30.80;36.13;101199.75;2109616;28;20071;-71
2022/05/25 05:26:57;;;;;;;6.45;2.95;;;;;;;30.94;35.54;101198.91;2099295;28;20063;-72
2022/05/25 05:28:21;;;;;;;4.35;1.50;;;;;;;31.09;35.33;101203.44;2098386;28;20047;-71
2022/05/25 05:29:44;;;;;;;4.20;1.67;;;;;;;31.19;35.03;101210.94;2110518;27;20047;-71
2022/05/25 05:31:08;;;;;;;5.65;1.70;;;;;;;31.26;34.92;101214.16;2104094;28;20084;-72
2022/05/25 05:32:31;;;;;;;4.57;1.90;;;;;;;31.33;34.72;101218.25;2100090;28;20135;-71
2022/05/25 05:33:53;;;;;;;3.83;1.60;;;;;;;31.42;34.65;101220.41;2107695;28;20040;-71
2022/05/25 05:35:16;;;;;;;6.15;1.88;;;;;;;31.61;34.78;101223.75;2100207;28;20040;-72
2022/05/25 05:36:42;;;;;;;3.92;1.52;;;;;;;31.74;34.82;101218.34;2099972;28;20044;-71
2022/05/25 05:38:06;;;;;;;5.50;1.73;;;;;;;31.83;34.76;101225.09;2107710;28;20072;-72
2022/05/25 05:39:33;;;;;;;4.32;1.60;;;;;;;31.96;34.87;101220.56;2103303;28;20063;-71
2022/05/25 05:40:56;;;;;;;4.10;1.65;;;;;;;32.06;34.66;101219.84;2101702;28;20520;-72
2022/05/25 05:42:21;;;;;;;5.05;1.50;;;;;;;32.12;33.77;101213.06;2100823;28;20048;-72
2022/05/25 05:43:44;;;;;;;5.22;1.60;;;;;;;32.16;33.03;101222.00;2119942;27;20054;-71
2022/05/25 05:45:10;;;;;;;5.07;1.45;;;;;;;32.24;32.62;101219.59;2110479;28;20376;-72
2022/05/25 05:46:32;;;;;;;7.35;1.55;;;;;;;32.38;32.43;101214.06;2111066;28;20581;-72
2022/05/25 05:47:55;;;;;;;;;;;;;;;32.38;31.80;101223.16;2108304;28;20044;-72
2022/05/25 05:49:18;;;;;;;4.75;1.40;;;;;;;32.53;32.06;101223.97;2115125;27;19920;-72
2022/05/25 05:50:42;;;;;;;5.50;1.27;;;;;;;32.62;31.70;101219.75;2103490;28;20032;-72
2022/05/25 05:52:09;;;;;;;5.72;1.27;;;;;;;32.73;31.42;101220.78;2098978;28;20117;-72
2022/05/25 05:53:32;;;;;;;4.22;1.55;;;;;;;32.74;30.90;101214.31;2109496;28;20048;-72
2022/05/25 05:54:55;;;;;;;5.10;1.73;;;;;;;32.77;30.99;101214.09;2113518;28;20043;-72
2022/05/25 05:56:19;;;;;;;2.65;1.27;;;;;;;32.88;30.75;101212.50;2105314;28;20151;-72
2022/05/25 05:57:42;;;;;;;3.88;1.10;;;;;;;33.00;30.27;101217.97;2100687;28;20040;-72
2022/05/25 05:59:03;;;;;;;6.32;3.03;;;;;;;33.13;29.67;101220.69;2108583;28;20135;-71
2022/05/25 06:00:26;;;;;;;;;;;;;;;33.05;29.10;101225.84;2097163;28;20052;-72
2022/05/25 06:01:48;;;;;;;1.50;1.00;;;;;;;33.12;29.81;101221.69;2106621;28;19934;-72
2022/05/25 06:03:12;;;;;;;4.35;1.40;;;;;;;33.15;29.23;101216.84;2094270;28;20096;-72
2022/05/25 06:04:35;;;;;;;3.35;1.38;;;;;;;33.26;29.79;101215.25;2098540;28;20071;-73
2022/05/25 06:05:58;;;;;;;4.90;1.38;;;;;;;33.37;29.28;101209.88;2109987;28;20133;-71
2022/05/25 06:07:21;;;;;;;5.80;1.42;;;;;;;33.49;28.94;101212.59;2107282;28;20139;-72
2022/05/25 06:08:46;;;;;;;5.70;1.38;;;;;;;33.51;29.09;101207.88;2100682;28;20040;-72
2022/05/25 06:10:10;;;;;;;3.67;1.45;;;;;;;33.50;28.73;101202.50;2105973;28;20044;-72
2022/05/25 06:11:34;;;;;;;4.38;1.27;;;;;;;33.47;28.57;101210.97;2094676;28;20153;-72
2022/05/25 06:12:57;;;;;;;3.85;1.50;;;;;;;33.49;28.54;101207.09;2100927;28;20566;-72
2022/05/25 06:14:20;;;;;;;6.85;1.63;;;;;;;33.57;28.46;101204.69;2103482;28;20048;-72
2022/05/25 06:19:27;;;;;;;7.47;1.55;;;;;;;33.99;28.04;101197.03;2113964;28;20054;-72
2022/05/25 06:20:51;;;;;;;3.03;1.48;;;;;;;34.08;27.83;101196.34;2114056;28;20081;-73
2022/05/25 06:22:18;;;;;;;6.25;1.40;;;;;;;34.17;27.91;101200.25;2111406;28;20079;-72
2022/05/25 06:23:42;;;;;;;4.05;1.35;;;;;;;34.24;27.63;101202.44;2101772;28;20040;-72
2022/05/25 06:25:05;;;;;;;3.28;1.40;;;;;;;34.30;27.37;101212.06;2113496;27;20161;-73
2022/05/25 06:26:30;;;;;;;3.15;1.30;;;;;;;34.30;27.13;101220.28;2111657;28;20536;-72
2022/05/25 06:27:53;;;;;;;2.75;1.13;;;;;;;34.29;27.37;101215.78;2109295;28;20042;-72
2022/05/25 06:29:17;;;;;;;3.40;1.35;;;;;;;34.24;27.20;101212.53;2102826;28;20126;-72
2022/05/25 06:30:40;;;;;;;5.38;1.30;;;;;;;34.25;27.30;101219.78;2102313;28;20041;-72
2022/05/25 06:32:03;;;;;;;4.32;1.65;;;;;;;34.22;27.16;101209.91;2115358;27;20566;-72
2022/05/25 06:33:26;;;;;;;2.95;1.10;;;;;;;34.16;27.37;101215.81;2099365;28;20044;-72
2022/05/25 06:34:50;;;;;;;3.95;1.30;;;;;;;34.16;27.28;101212.19;2115987;27;20047;-73
2022/05/25 06:36:14;;;;;;;3.60;1.23;;;;;;;34.23;27.01;101214.41;2106691;28;20772;-74
2022/05/25 06:37:39;;;;;;;2.72;1.40;;;;;;;34.16;26.92;101210.34;2102024;28;20048;-73
2022/05/25 06:39:05;;;;;;;4.75;1.30;;;;;;;34.15;27.07;101208.59;2107078;28;20510;-73
2022/05/25 06:40:32;;;;;;;3.25;1.45;;;;;;;34.18;26.87;101210.22;2097959;28;20087;-73
2022/05/25 06:41:55;;;;;;;5.15;1.20;;;;;;;34.18;27.07;101212.97;2097449;28;20044;-73
2022/05/25 06:43:17;;;;;;;9.93;1.60;;;;;;;34.14;27.33;101211.44;2102506;28;20442;-73
2022/05/25 06:44:41;;;;;;;6.25;1.50;;;;;;;34.05;27.46;101210.28;2093021;28;20043;-73
2022/05/25 06:46:04;;;;;;;3.00;1.30;;;;;;;33.89;27.82;101206.94;2100073;28;20048;-73
2022/05/25 06:47:27;;;;;;;7.20;1.60;;;;;;;33.85;28.43;101206.31;2111394;28;20048;-73
2022/05/25 06:48:53;;;;;;;7.47;1.83;;;;;;;33.83;28.50;101207.41;2109193;28;20043;-74